sensor_id;sensor_type;location;lat;lon;timestamp;P1;durP1;ratioP1;P2;durP2;ratioP2
15412;SDS011;7805;49.554;7.632;2022-08-11T00:00:35;2.33;;;2.13;;
15412;SDS011;7805;49.554;7.632;2022-08-11T00:03:06;3.27;;;2.23;;
15412;SDS011;7805;49.554;7.632;2022-08-11T00:05:38;4.23;;;2.23;;
15412;SDS011;7805;49.554;7.632;2022-08-11T00:08:19;2.93;;;2.37;;
15412;SDS011;7805;49.554;7.632;2022-08-11T00:10:56;3.03;;;2.57;;
15412;SDS011;7805;49.554;7.632;2022-08-11T00:13:31;4.60;;;2.60;;
15412;SDS011;7805;49.554;7.632;2022-08-11T00:15:59;4.60;;;2.50;;
15412;SDS011;7805;49.554;7.632;2022-08-11T00:18:25;2.53;;;2.30;;
15412;SDS011;7805;49.554;7.632;2022-08-11T00:20:51;2.83;;;2.40;;
15412;SDS011;7805;49.554;7.632;2022-08-11T00:23:23;2.50;;;2.40;;
15412;SDS011;7805;49.554;7.632;2022-08-11T00:25:50;2.83;;;2.63;;
15412;SDS011;7805;49.554;7.632;2022-08-11T00:28:32;5.83;;;2.60;;
15412;SDS011;7805;49.554;7.632;2022-08-11T00:31:03;3.43;;;2.40;;
15412;SDS011;7805;49.554;7.632;2022-08-11T00:36:05;2.50;;;2.30;;
15412;SDS011;7805;49.554;7.632;2022-08-11T00:38:33;2.97;;;2.27;;
15412;SDS011;7805;49.554;7.632;2022-08-11T00:51:35;2.40;;;2.30;;
15412;SDS011;7805;49.554;7.632;2022-08-11T01:13:54;5.67;;;2.67;;
15412;SDS011;7805;49.554;7.632;2022-08-11T01:47:30;3.23;;;3.03;;
15412;SDS011;7805;49.554;7.632;2022-08-11T01:56:09;3.03;;;2.83;;
15412;SDS011;7805;49.554;7.632;2022-08-11T01:58:22;3.10;;;2.90;;
15412;SDS011;7805;49.554;7.632;2022-08-11T02:04:03;3.10;;;2.80;;
15412;SDS011;7805;49.554;7.632;2022-08-11T02:20:30;7.67;;;3.10;;
15412;SDS011;7805;49.554;7.632;2022-08-11T02:23:48;3.13;;;2.90;;
15412;SDS011;7805;49.554;7.632;2022-08-11T02:29:32;4.80;;;3.00;;
15412;SDS011;7805;49.554;7.632;2022-08-11T02:35:09;3.43;;;3.23;;
15412;SDS011;7805;49.554;7.632;2022-08-11T02:40:29;5.43;;;3.60;;
15412;SDS011;7805;49.554;7.632;2022-08-11T02:45:55;4.13;;;3.40;;
15412;SDS011;7805;49.554;7.632;2022-08-11T02:48:47;4.80;;;3.40;;
15412;SDS011;7805;49.554;7.632;2022-08-11T02:52:07;4.27;;;2.90;;
15412;SDS011;7805;49.554;7.632;2022-08-11T02:58:09;3.73;;;3.40;;
15412;SDS011;7805;49.554;7.632;2022-08-11T03:00:42;2.97;;;2.73;;
15412;SDS011;7805;49.554;7.632;2022-08-11T03:05:57;4.83;;;3.40;;
15412;SDS011;7805;49.554;7.632;2022-08-11T03:08:43;3.80;;;3.43;;
15412;SDS011;7805;49.554;7.632;2022-08-11T03:14:38;4.53;;;3.47;;
15412;SDS011;7805;49.554;7.632;2022-08-11T03:17:50;4.00;;;3.20;;
15412;SDS011;7805;49.554;7.632;2022-08-11T03:20:44;3.27;;;3.07;;
15412;SDS011;7805;49.554;7.632;2022-08-11T03:23:40;3.40;;;3.10;;
15412;SDS011;7805;49.554;7.632;2022-08-11T03:29:09;4.33;;;3.43;;
15412;SDS011;7805;49.554;7.632;2022-08-11T03:34:31;3.80;;;3.50;;
15412;SDS011;7805;49.554;7.632;2022-08-11T03:45:47;4.13;;;3.53;;
15412;SDS011;7805;49.554;7.632;2022-08-11T03:54:00;3.50;;;3.20;;
15412;SDS011;7805;49.554;7.632;2022-08-11T04:15:07;4.03;;;3.33;;
15412;SDS011;7805;49.554;7.632;2022-08-11T04:21:19;4.33;;;3.93;;
15412;SDS011;7805;49.554;7.632;2022-08-11T04:35:03;4.03;;;3.63;;
15412;SDS011;7805;49.554;7.632;2022-08-11T05:06:27;8.57;;;4.77;;
15412;SDS011;7805;49.554;7.632;2022-08-11T05:17:38;8.17;;;4.23;;
15412;SDS011;7805;49.554;7.632;2022-08-11T05:20:47;10.50;;;4.33;;
15412;SDS011;7805;49.554;7.632;2022-08-11T05:23:38;7.70;;;4.70;;
15412;SDS011;7805;49.554;7.632;2022-08-11T05:26:26;14.90;;;4.40;;
15412;SDS011;7805;49.554;7.632;2022-08-11T05:29:23;14.30;;;4.70;;
15412;SDS011;7805;49.554;7.632;2022-08-11T05:32:21;12.13;;;4.73;;
15412;SDS011;7805;49.554;7.632;2022-08-11T05:35:06;13.17;;;4.50;;
15412;SDS011;7805;49.554;7.632;2022-08-11T05:37:37;11.13;;;4.50;;
15412;SDS011;7805;49.554;7.632;2022-08-11T05:40:26;11.47;;;4.33;;
15412;SDS011;7805;49.554;7.632;2022-08-11T05:43:11;4.97;;;4.03;;
15412;SDS011;7805;49.554;7.632;2022-08-11T05:46:00;4.27;;;3.87;;
15412;SDS011;7805;49.554;7.632;2022-08-11T05:48:45;4.20;;;3.80;;
15412;SDS011;7805;49.554;7.632;2022-08-11T05:51:40;3.73;;;3.50;;
15412;SDS011;7805;49.554;7.632;2022-08-11T05:54:26;4.33;;;3.63;;
15412;SDS011;7805;49.554;7.632;2022-08-11T05:57:18;4.53;;;3.37;;
15412;SDS011;7805;49.554;7.632;2022-08-11T05:59:46;3.60;;;3.30;;
15412;SDS011;7805;49.554;7.632;2022-08-11T06:02:12;3.33;;;3.03;;
15412;SDS011;7805;49.554;7.632;2022-08-11T06:04:39;4.63;;;3.60;;
15412;SDS011;7805;49.554;7.632;2022-08-11T06:07:06;6.10;;;3.10;;
15412;SDS011;7805;49.554;7.632;2022-08-11T06:14:49;4.00;;;2.97;;
15412;SDS011;7805;49.554;7.632;2022-08-11T06:17:26;4.43;;;3.17;;
15412;SDS011;7805;49.554;7.632;2022-08-11T06:19:58;6.97;;;3.97;;
15412;SDS011;7805;49.554;7.632;2022-08-11T06:22:25;4.23;;;3.40;;
15412;SDS011;7805;49.554;7.632;2022-08-11T06:24:54;4.00;;;3.30;;
15412;SDS011;7805;49.554;7.632;2022-08-11T06:27:22;3.37;;;3.17;;
15412;SDS011;7805;49.554;7.632;2022-08-11T06:29:52;9.57;;;3.50;;
15412;SDS011;7805;49.554;7.632;2022-08-11T06:32:23;4.90;;;3.50;;
15412;SDS011;7805;49.554;7.632;2022-08-11T06:37:38;6.47;;;3.60;;
15412;SDS011;7805;49.554;7.632;2022-08-11T06:40:14;2.73;;;2.47;;
15412;SDS011;7805;49.554;7.632;2022-08-11T06:45:27;6.80;;;3.33;;
15412;SDS011;7805;49.554;7.632;2022-08-11T06:48:16;4.13;;;3.25;;
15412;SDS011;7805;49.554;7.632;2022-08-11T06:50:52;6.22;;;3.20;;
15412;SDS011;7805;49.554;7.632;2022-08-11T06:53:41;5.50;;;2.90;;
15412;SDS011;7805;49.554;7.632;2022-08-11T06:56:08;6.18;;;3.15;;
15412;SDS011;7805;49.554;7.632;2022-08-11T06:58:55;6.07;;;3.47;;
15412;SDS011;7805;49.554;7.632;2022-08-11T07:04:35;8.10;;;2.90;;
15412;SDS011;7805;49.554;7.632;2022-08-11T07:13:11;7.63;;;3.05;;
15412;SDS011;7805;49.554;7.632;2022-08-11T07:15:59;3.60;;;2.90;;
15412;SDS011;7805;49.554;7.632;2022-08-11T07:18:26;4.20;;;3.05;;
15412;SDS011;7805;49.554;7.632;2022-08-11T07:21:15;4.13;;;2.80;;
15412;SDS011;7805;49.554;7.632;2022-08-11T07:24:07;4.75;;;2.88;;
15412;SDS011;7805;49.554;7.632;2022-08-11T07:27:07;4.38;;;2.90;;
15412;SDS011;7805;49.554;7.632;2022-08-11T07:29:57;8.32;;;3.33;;
15412;SDS011;7805;49.554;7.632;2022-08-11T07:32:26;12.15;;;3.42;;
15412;SDS011;7805;49.554;7.632;2022-08-11T07:34:55;5.78;;;2.70;;
15412;SDS011;7805;49.554;7.632;2022-08-11T07:37:25;4.43;;;3.20;;
15412;SDS011;7805;49.554;7.632;2022-08-11T07:39:55;4.38;;;2.60;;
15412;SDS011;7805;49.554;7.632;2022-08-11T07:42:26;12.43;;;2.80;;
15412;SDS011;7805;49.554;7.632;2022-08-11T07:44:54;6.00;;;3.80;;
15412;SDS011;7805;49.554;7.632;2022-08-11T07:47:39;2.78;;;2.42;;
15412;SDS011;7805;49.554;7.632;2022-08-11T07:50:25;4.63;;;2.70;;
15412;SDS011;7805;49.554;7.632;2022-08-11T07:53:09;2.80;;;2.60;;
15412;SDS011;7805;49.554;7.632;2022-08-11T07:55:37;2.75;;;2.47;;
15412;SDS011;7805;49.554;7.632;2022-08-11T07:58:03;3.58;;;2.78;;
15412;SDS011;7805;49.554;7.632;2022-08-11T08:03:32;2.55;;;2.28;;
15412;SDS011;7805;49.554;7.632;2022-08-11T08:06:17;6.30;;;3.33;;
15412;SDS011;7805;49.554;7.632;2022-08-11T08:09:02;2.70;;;2.50;;
15412;SDS011;7805;49.554;7.632;2022-08-11T08:11:48;4.32;;;2.80;;
15412;SDS011;7805;49.554;7.632;2022-08-11T08:14:33;3.53;;;2.80;;
15412;SDS011;7805;49.554;7.632;2022-08-11T08:17:18;3.83;;;2.47;;
15412;SDS011;7805;49.554;7.632;2022-08-11T08:20:04;2.67;;;2.42;;
15412;SDS011;7805;49.554;7.632;2022-08-11T08:22:34;5.50;;;2.85;;
15412;SDS011;7805;49.554;7.632;2022-08-11T08:25:00;5.28;;;2.50;;
15412;SDS011;7805;49.554;7.632;2022-08-11T08:27:26;3.72;;;2.55;;
15412;SDS011;7805;49.554;7.632;2022-08-11T08:29:52;2.70;;;2.47;;
15412;SDS011;7805;49.554;7.632;2022-08-11T08:32:44;2.90;;;2.30;;
15412;SDS011;7805;49.554;7.632;2022-08-11T08:35:10;3.35;;;2.55;;
15412;SDS011;7805;49.554;7.632;2022-08-11T08:37:36;3.97;;;2.42;;
15412;SDS011;7805;49.554;7.632;2022-08-11T08:40:04;4.30;;;2.40;;
15412;SDS011;7805;49.554;7.632;2022-08-11T08:42:34;3.15;;;2.00;;
15412;SDS011;7805;49.554;7.632;2022-08-11T08:45:10;4.03;;;2.17;;
15412;SDS011;7805;49.554;7.632;2022-08-11T08:48:02;5.60;;;2.22;;
15412;SDS011;7805;49.554;7.632;2022-08-11T08:50:34;3.90;;;2.50;;
15412;SDS011;7805;49.554;7.632;2022-08-11T08:53:22;7.55;;;2.47;;
15412;SDS011;7805;49.554;7.632;2022-08-11T08:55:53;3.38;;;2.33;;
15412;SDS011;7805;49.554;7.632;2022-08-11T08:58:21;3.95;;;2.47;;
15412;SDS011;7805;49.554;7.632;2022-08-11T09:00:49;3.47;;;2.17;;
15412;SDS011;7805;49.554;7.632;2022-08-11T09:03:16;2.97;;;1.95;;
15412;SDS011;7805;49.554;7.632;2022-08-11T09:05:43;2.25;;;2.05;;
15412;SDS011;7805;49.554;7.632;2022-08-11T09:08:10;3.08;;;2.40;;
15412;SDS011;7805;49.554;7.632;2022-08-11T09:10:36;5.15;;;2.30;;
15412;SDS011;7805;49.554;7.632;2022-08-11T09:13:02;2.92;;;2.08;;
15412;SDS011;7805;49.554;7.632;2022-08-11T09:15:30;4.07;;;2.28;;
15412;SDS011;7805;49.554;7.632;2022-08-11T09:17:58;2.05;;;1.95;;
15412;SDS011;7805;49.554;7.632;2022-08-11T09:20:33;3.83;;;2.20;;
15412;SDS011;7805;49.554;7.632;2022-08-11T09:23:02;4.50;;;2.10;;
15412;SDS011;7805;49.554;7.632;2022-08-11T09:25:53;2.83;;;2.00;;
15412;SDS011;7805;49.554;7.632;2022-08-11T09:28:42;2.10;;;2.00;;
15412;SDS011;7805;49.554;7.632;2022-08-11T09:31:09;2.33;;;2.13;;
15412;SDS011;7805;49.554;7.632;2022-08-11T09:33:37;2.60;;;1.98;;
15412;SDS011;7805;49.554;7.632;2022-08-11T09:36:04;5.15;;;2.13;;
15412;SDS011;7805;49.554;7.632;2022-08-11T09:38:50;1.95;;;1.80;;
15412;SDS011;7805;49.554;7.632;2022-08-11T09:41:35;2.30;;;1.70;;
15412;SDS011;7805;49.554;7.632;2022-08-11T09:44:03;3.28;;;2.00;;
15412;SDS011;7805;49.554;7.632;2022-08-11T09:46:49;2.22;;;2.03;;
15412;SDS011;7805;49.554;7.632;2022-08-11T09:49:17;2.22;;;2.00;;
15412;SDS011;7805;49.554;7.632;2022-08-11T09:51:45;4.47;;;2.08;;
15412;SDS011;7805;49.554;7.632;2022-08-11T09:54:13;5.63;;;1.92;;
15412;SDS011;7805;49.554;7.632;2022-08-11T09:56:41;4.00;;;2.10;;
15412;SDS011;7805;49.554;7.632;2022-08-11T09:59:25;3.15;;;2.00;;
15412;SDS011;7805;49.554;7.632;2022-08-11T10:01:56;3.30;;;1.90;;
15412;SDS011;7805;49.554;7.632;2022-08-11T10:04:25;2.72;;;1.80;;
15412;SDS011;7805;49.554;7.632;2022-08-11T10:06:59;3.35;;;1.83;;
15412;SDS011;7805;49.554;7.632;2022-08-11T10:09:35;5.30;;;1.90;;
15412;SDS011;7805;49.554;7.632;2022-08-11T10:12:08;2.55;;;1.73;;
15412;SDS011;7805;49.554;7.632;2022-08-11T10:14:45;3.65;;;1.88;;
15412;SDS011;7805;49.554;7.632;2022-08-11T10:17:34;2.25;;;1.83;;
15412;SDS011;7805;49.554;7.632;2022-08-11T10:20:23;2.35;;;1.75;;
15412;SDS011;7805;49.554;7.632;2022-08-11T10:22:49;2.47;;;1.92;;
15412;SDS011;7805;49.554;7.632;2022-08-11T10:25:33;3.25;;;2.13;;
15412;SDS011;7805;49.554;7.632;2022-08-11T10:28:38;2.25;;;1.95;;
15412;SDS011;7805;49.554;7.632;2022-08-11T10:31:04;6.47;;;1.92;;
15412;SDS011;7805;49.554;7.632;2022-08-11T10:33:49;3.17;;;2.17;;
15412;SDS011;7805;49.554;7.632;2022-08-11T10:36:27;3.90;;;2.10;;
15412;SDS011;7805;49.554;7.632;2022-08-11T10:38:56;3.53;;;2.15;;
15412;SDS011;7805;49.554;7.632;2022-08-11T10:41:24;5.18;;;2.25;;
15412;SDS011;7805;49.554;7.632;2022-08-11T10:44:10;2.10;;;1.92;;
15412;SDS011;7805;49.554;7.632;2022-08-11T10:46:37;3.83;;;2.00;;
15412;SDS011;7805;49.554;7.632;2022-08-11T10:49:22;2.63;;;2.10;;
15412;SDS011;7805;49.554;7.632;2022-08-11T10:51:50;4.57;;;2.40;;
15412;SDS011;7805;49.554;7.632;2022-08-11T10:54:38;5.45;;;2.70;;
15412;SDS011;7805;49.554;7.632;2022-08-11T10:57:23;4.80;;;2.40;;
15412;SDS011;7805;49.554;7.632;2022-08-11T11:00:09;4.22;;;2.30;;
15412;SDS011;7805;49.554;7.632;2022-08-11T11:02:39;1.83;;;1.50;;
15412;SDS011;7805;49.554;7.632;2022-08-11T11:10:24;3.65;;;2.00;;
15412;SDS011;7805;49.554;7.632;2022-08-11T11:12:52;4.40;;;2.17;;
15412;SDS011;7805;49.554;7.632;2022-08-11T11:15:40;2.30;;;1.92;;
15412;SDS011;7805;49.554;7.632;2022-08-11T11:18:28;4.45;;;2.05;;
15412;SDS011;7805;49.554;7.632;2022-08-11T11:36:54;3.65;;;2.40;;
15412;SDS011;7805;49.554;7.632;2022-08-11T11:39:25;4.90;;;2.38;;
15412;SDS011;7805;49.554;7.632;2022-08-11T11:41:53;3.10;;;2.60;;
15412;SDS011;7805;49.554;7.632;2022-08-11T11:44:22;3.22;;;2.30;;
15412;SDS011;7805;49.554;7.632;2022-08-11T11:46:48;3.80;;;2.17;;
15412;SDS011;7805;49.554;7.632;2022-08-11T11:49:16;3.17;;;2.00;;
15412;SDS011;7805;49.554;7.632;2022-08-11T11:51:48;3.42;;;2.20;;
15412;SDS011;7805;49.554;7.632;2022-08-11T11:54:16;4.72;;;2.00;;
15412;SDS011;7805;49.554;7.632;2022-08-11T11:56:47;4.35;;;2.10;;
15412;SDS011;7805;49.554;7.632;2022-08-11T11:59:17;2.85;;;1.80;;
15412;SDS011;7805;49.554;7.632;2022-08-11T12:02:08;2.22;;;2.03;;
15412;SDS011;7805;49.554;7.632;2022-08-11T12:04:36;2.10;;;1.75;;
15412;SDS011;7805;49.554;7.632;2022-08-11T12:07:05;4.40;;;2.03;;
15412;SDS011;7805;49.554;7.632;2022-08-11T12:09:51;3.42;;;2.03;;
15412;SDS011;7805;49.554;7.632;2022-08-11T12:12:18;2.00;;;1.80;;
15412;SDS011;7805;49.554;7.632;2022-08-11T12:15:05;2.92;;;2.08;;
15412;SDS011;7805;49.554;7.632;2022-08-11T12:17:31;6.18;;;2.13;;
15412;SDS011;7805;49.554;7.632;2022-08-11T12:19:59;4.03;;;1.55;;
15412;SDS011;7805;49.554;7.632;2022-08-11T12:22:25;3.65;;;1.92;;
15412;SDS011;7805;49.554;7.632;2022-08-11T12:25:10;3.22;;;2.92;;
15412;SDS011;7805;49.554;7.632;2022-08-11T12:27:54;2.05;;;1.65;;
15412;SDS011;7805;49.554;7.632;2022-08-11T12:30:20;4.15;;;1.88;;
15412;SDS011;7805;49.554;7.632;2022-08-11T12:32:47;7.82;;;2.13;;
15412;SDS011;7805;49.554;7.632;2022-08-11T12:35:13;2.63;;;2.00;;
15412;SDS011;7805;49.554;7.632;2022-08-11T12:37:44;2.53;;;2.25;;
15412;SDS011;7805;49.554;7.632;2022-08-11T12:40:15;2.85;;;1.90;;
15412;SDS011;7805;49.554;7.632;2022-08-11T12:43:06;2.20;;;2.10;;
15412;SDS011;7805;49.554;7.632;2022-08-11T12:45:54;5.72;;;2.13;;
15412;SDS011;7805;49.554;7.632;2022-08-11T12:48:22;6.35;;;2.55;;
15412;SDS011;7805;49.554;7.632;2022-08-11T12:51:10;4.82;;;1.83;;
15412;SDS011;7805;49.554;7.632;2022-08-11T12:53:59;2.05;;;1.90;;
15412;SDS011;7805;49.554;7.632;2022-08-11T12:56:38;3.78;;;2.00;;
15412;SDS011;7805;49.554;7.632;2022-08-11T12:59:26;2.20;;;2.00;;
15412;SDS011;7805;49.554;7.632;2022-08-11T13:02:11;2.03;;;1.92;;
15412;SDS011;7805;49.554;7.632;2022-08-11T13:05:03;2.40;;;2.20;;
15412;SDS011;7805;49.554;7.632;2022-08-11T13:07:30;2.40;;;2.20;;
15412;SDS011;7805;49.554;7.632;2022-08-11T13:09:57;4.40;;;1.88;;
15412;SDS011;7805;49.554;7.632;2022-08-11T13:12:25;2.20;;;1.80;;
15412;SDS011;7805;49.554;7.632;2022-08-11T13:15:13;5.10;;;2.17;;
15412;SDS011;7805;49.554;7.632;2022-08-11T13:17:43;4.45;;;2.00;;
15412;SDS011;7805;49.554;7.632;2022-08-11T13:20:11;2.28;;;2.08;;
15412;SDS011;7805;49.554;7.632;2022-08-11T13:22:41;3.80;;;1.60;;
15412;SDS011;7805;49.554;7.632;2022-08-11T13:25:12;4.07;;;2.30;;
15412;SDS011;7805;49.554;7.632;2022-08-11T13:27:40;2.30;;;2.10;;
15412;SDS011;7805;49.554;7.632;2022-08-11T13:30:07;4.63;;;2.10;;
15412;SDS011;7805;49.554;7.632;2022-08-11T13:32:52;3.45;;;2.00;;
15412;SDS011;7805;49.554;7.632;2022-08-11T13:35:21;3.42;;;2.78;;
15412;SDS011;7805;49.554;7.632;2022-08-11T13:37:47;3.08;;;2.35;;
15412;SDS011;7805;49.554;7.632;2022-08-11T13:40:15;3.13;;;2.92;;
15412;SDS011;7805;49.554;7.632;2022-08-11T13:42:43;2.13;;;2.00;;
15412;SDS011;7805;49.554;7.632;2022-08-11T13:45:10;2.60;;;2.40;;
15412;SDS011;7805;49.554;7.632;2022-08-11T13:47:37;2.88;;;2.00;;
15412;SDS011;7805;49.554;7.632;2022-08-11T13:50:04;5.22;;;2.40;;
15412;SDS011;7805;49.554;7.632;2022-08-11T13:52:32;7.05;;;4.38;;
15412;SDS011;7805;49.554;7.632;2022-08-11T13:54:59;6.03;;;2.80;;
15412;SDS011;7805;49.554;7.632;2022-08-11T13:57:25;3.20;;;2.58;;
15412;SDS011;7805;49.554;7.632;2022-08-11T13:59:57;2.22;;;2.03;;
15412;SDS011;7805;49.554;7.632;2022-08-11T14:02:33;8.02;;;2.50;;
15412;SDS011;7805;49.554;7.632;2022-08-11T14:05:02;3.17;;;2.83;;
15412;SDS011;7805;49.554;7.632;2022-08-11T14:07:37;2.53;;;2.33;;
15412;SDS011;7805;49.554;7.632;2022-08-11T14:10:06;2.75;;;2.33;;
15412;SDS011;7805;49.554;7.632;2022-08-11T14:12:36;4.38;;;2.10;;
15412;SDS011;7805;49.554;7.632;2022-08-11T14:15:22;2.65;;;2.20;;
15412;SDS011;7805;49.554;7.632;2022-08-11T14:18:09;2.20;;;2.10;;
15412;SDS011;7805;49.554;7.632;2022-08-11T14:20:41;3.47;;;2.60;;
15412;SDS011;7805;49.554;7.632;2022-08-11T14:23:27;3.65;;;2.50;;
15412;SDS011;7805;49.554;7.632;2022-08-11T14:25:59;3.83;;;2.70;;
15412;SDS011;7805;49.554;7.632;2022-08-11T14:28:44;3.88;;;2.10;;
15412;SDS011;7805;49.554;7.632;2022-08-11T14:31:12;2.75;;;2.20;;
15412;SDS011;7805;49.554;7.632;2022-08-11T14:33:39;3.83;;;2.70;;
15412;SDS011;7805;49.554;7.632;2022-08-11T14:36:07;2.83;;;2.20;;
15412;SDS011;7805;49.554;7.632;2022-08-11T14:38:35;2.35;;;2.08;;
15412;SDS011;7805;49.554;7.632;2022-08-11T14:41:03;2.58;;;2.13;;
15412;SDS011;7805;49.554;7.632;2022-08-11T14:43:48;7.20;;;5.15;;
15412;SDS011;7805;49.554;7.632;2022-08-11T14:46:33;4.70;;;2.30;;
15412;SDS011;7805;49.554;7.632;2022-08-11T14:49:18;5.00;;;2.20;;
15412;SDS011;7805;49.554;7.632;2022-08-11T14:51:45;3.38;;;2.45;;
15412;SDS011;7805;49.554;7.632;2022-08-11T14:54:12;3.63;;;2.13;;
15412;SDS011;7805;49.554;7.632;2022-08-11T14:56:57;6.22;;;2.28;;
15412;SDS011;7805;49.554;7.632;2022-08-11T14:59:24;5.03;;;2.80;;
15412;SDS011;7805;49.554;7.632;2022-08-11T15:01:50;3.40;;;2.10;;
15412;SDS011;7805;49.554;7.632;2022-08-11T15:04:35;3.38;;;2.55;;
15412;SDS011;7805;49.554;7.632;2022-08-11T15:07:03;4.07;;;2.15;;
15412;SDS011;7805;49.554;7.632;2022-08-11T15:09:29;2.85;;;2.40;;
15412;SDS011;7805;49.554;7.632;2022-08-11T15:11:55;2.92;;;2.20;;
15412;SDS011;7805;49.554;7.632;2022-08-11T15:14:41;6.35;;;5.00;;
15412;SDS011;7805;49.554;7.632;2022-08-11T15:17:27;7.47;;;2.13;;
15412;SDS011;7805;49.554;7.632;2022-08-11T15:19:59;3.40;;;2.47;;
15412;SDS011;7805;49.554;7.632;2022-08-11T15:22:49;3.58;;;2.38;;
15412;SDS011;7805;49.554;7.632;2022-08-11T15:25:34;3.72;;;2.42;;
15412;SDS011;7805;49.554;7.632;2022-08-11T15:28:02;3.35;;;2.67;;
15412;SDS011;7805;49.554;7.632;2022-08-11T15:30:49;3.88;;;2.45;;
15412;SDS011;7805;49.554;7.632;2022-08-11T15:33:38;3.67;;;3.38;;
15412;SDS011;7805;49.554;7.632;2022-08-11T15:36:25;3.22;;;2.40;;
15412;SDS011;7805;49.554;7.632;2022-08-11T15:39:16;5.85;;;2.50;;
15412;SDS011;7805;49.554;7.632;2022-08-11T15:41:52;2.20;;;2.10;;
15412;SDS011;7805;49.554;7.632;2022-08-11T15:44:41;2.15;;;2.05;;
15412;SDS011;7805;49.554;7.632;2022-08-11T15:47:35;3.45;;;2.33;;
15412;SDS011;7805;49.554;7.632;2022-08-11T15:50:06;2.38;;;2.17;;
15412;SDS011;7805;49.554;7.632;2022-08-11T15:52:40;5.88;;;2.30;;
15412;SDS011;7805;49.554;7.632;2022-08-11T15:55:17;5.00;;;2.30;;
15412;SDS011;7805;49.554;7.632;2022-08-11T15:57:46;3.72;;;2.60;;
15412;SDS011;7805;49.554;7.632;2022-08-11T16:00:34;7.13;;;2.38;;
15412;SDS011;7805;49.554;7.632;2022-08-11T16:03:20;4.68;;;2.10;;
15412;SDS011;7805;49.554;7.632;2022-08-11T16:06:07;3.38;;;2.50;;
15412;SDS011;7805;49.554;7.632;2022-08-11T16:08:34;3.15;;;2.30;;
15412;SDS011;7805;49.554;7.632;2022-08-11T16:11:01;6.10;;;2.35;;
15412;SDS011;7805;49.554;7.632;2022-08-11T16:13:27;2.47;;;2.28;;
15412;SDS011;7805;49.554;7.632;2022-08-11T16:15:54;2.40;;;2.22;;
15412;SDS011;7805;49.554;7.632;2022-08-11T16:18:42;2.55;;;2.35;;
15412;SDS011;7805;49.554;7.632;2022-08-11T16:21:21;5.10;;;3.42;;
15412;SDS011;7805;49.554;7.632;2022-08-11T16:23:51;3.25;;;2.53;;
15412;SDS011;7805;49.554;7.632;2022-08-11T16:26:19;4.45;;;3.97;;
15412;SDS011;7805;49.554;7.632;2022-08-11T16:28:48;4.10;;;2.80;;
15412;SDS011;7805;49.554;7.632;2022-08-11T16:31:16;3.70;;;2.15;;
15412;SDS011;7805;49.554;7.632;2022-08-11T16:33:44;4.43;;;3.33;;
15412;SDS011;7805;49.554;7.632;2022-08-11T16:36:12;4.25;;;3.33;;
15412;SDS011;7805;49.554;7.632;2022-08-11T16:38:58;3.45;;;2.42;;
15412;SDS011;7805;49.554;7.632;2022-08-11T16:41:26;5.10;;;2.20;;
15412;SDS011;7805;49.554;7.632;2022-08-11T16:44:14;2.70;;;2.50;;
15412;SDS011;7805;49.554;7.632;2022-08-11T16:47:00;3.55;;;2.30;;
15412;SDS011;7805;49.554;7.632;2022-08-11T16:49:41;3.42;;;2.38;;
15412;SDS011;7805;49.554;7.632;2022-08-11T16:52:11;3.58;;;2.15;;
15412;SDS011;7805;49.554;7.632;2022-08-11T16:54:37;4.20;;;2.47;;
15412;SDS011;7805;49.554;7.632;2022-08-11T16:57:09;7.85;;;2.60;;
15412;SDS011;7805;49.554;7.632;2022-08-11T17:00:00;4.18;;;2.97;;
15412;SDS011;7805;49.554;7.632;2022-08-11T17:02:31;2.97;;;2.55;;
15412;SDS011;7805;49.554;7.632;2022-08-11T17:05:21;3.15;;;2.25;;
15412;SDS011;7805;49.554;7.632;2022-08-11T17:08:07;7.20;;;3.28;;
15412;SDS011;7805;49.554;7.632;2022-08-11T17:10:55;3.03;;;2.45;;
15412;SDS011;7805;49.554;7.632;2022-08-11T17:13:45;2.95;;;2.30;;
15412;SDS011;7805;49.554;7.632;2022-08-11T17:16:36;3.35;;;3.05;;
15412;SDS011;7805;49.554;7.632;2022-08-11T17:19:09;2.75;;;2.50;;
15412;SDS011;7805;49.554;7.632;2022-08-11T17:21:46;3.22;;;2.45;;
15412;SDS011;7805;49.554;7.632;2022-08-11T17:24:32;3.05;;;2.38;;
15412;SDS011;7805;49.554;7.632;2022-08-11T17:27:00;3.80;;;3.25;;
15412;SDS011;7805;49.554;7.632;2022-08-11T17:32:24;6.47;;;2.10;;
15412;SDS011;7805;49.554;7.632;2022-08-11T17:35:18;2.53;;;2.22;;
15412;SDS011;7805;49.554;7.632;2022-08-11T17:37:56;2.88;;;2.67;;
15412;SDS011;7805;49.554;7.632;2022-08-11T17:40:22;2.90;;;2.70;;
15412;SDS011;7805;49.554;7.632;2022-08-11T17:42:50;3.00;;;2.80;;
15412;SDS011;7805;49.554;7.632;2022-08-11T17:45:37;2.90;;;2.70;;
15412;SDS011;7805;49.554;7.632;2022-08-11T17:48:23;2.72;;;2.53;;
15412;SDS011;7805;49.554;7.632;2022-08-11T17:51:33;2.92;;;2.63;;
15412;SDS011;7805;49.554;7.632;2022-08-11T17:54:02;5.25;;;2.50;;
15412;SDS011;7805;49.554;7.632;2022-08-11T17:56:48;3.00;;;2.45;;
15412;SDS011;7805;49.554;7.632;2022-08-11T17:59:35;2.90;;;2.65;;
15412;SDS011;7805;49.554;7.632;2022-08-11T18:05:22;3.63;;;2.50;;
15412;SDS011;7805;49.554;7.632;2022-08-11T18:07:52;4.25;;;2.92;;
15412;SDS011;7805;49.554;7.632;2022-08-11T18:10:39;2.40;;;2.30;;
15412;SDS011;7805;49.554;7.632;2022-08-11T18:13:25;3.50;;;2.30;;
15412;SDS011;7805;49.554;7.632;2022-08-11T18:16:11;5.50;;;4.95;;
15412;SDS011;7805;49.554;7.632;2022-08-11T18:18:56;3.70;;;2.38;;
15412;SDS011;7805;49.554;7.632;2022-08-11T18:21:41;3.30;;;3.00;;
15412;SDS011;7805;49.554;7.632;2022-08-11T18:24:28;7.07;;;3.40;;
15412;SDS011;7805;49.554;7.632;2022-08-11T18:27:15;3.33;;;2.97;;
15412;SDS011;7805;49.554;7.632;2022-08-11T18:30:02;3.40;;;2.70;;
15412;SDS011;7805;49.554;7.632;2022-08-11T18:32:47;4.57;;;3.00;;
15412;SDS011;7805;49.554;7.632;2022-08-11T18:35:35;3.85;;;3.17;;
15412;SDS011;7805;49.554;7.632;2022-08-11T18:38:21;5.18;;;2.42;;
15412;SDS011;7805;49.554;7.632;2022-08-11T18:41:08;2.88;;;2.40;;
15412;SDS011;7805;49.554;7.632;2022-08-11T18:43:53;2.55;;;2.35;;
15412;SDS011;7805;49.554;7.632;2022-08-11T18:46:43;5.05;;;2.80;;
15412;SDS011;7805;49.554;7.632;2022-08-11T18:49:32;2.83;;;2.10;;
15412;SDS011;7805;49.554;7.632;2022-08-11T18:52:18;9.52;;;8.07;;
15412;SDS011;7805;49.554;7.632;2022-08-11T18:55:06;6.68;;;3.72;;
15412;SDS011;7805;49.554;7.632;2022-08-11T18:57:54;7.95;;;6.53;;
15412;SDS011;7805;49.554;7.632;2022-08-11T19:00:41;18.50;;;13.23;;
15412;SDS011;7805;49.554;7.632;2022-08-11T19:03:27;25.75;;;17.80;;
15412;SDS011;7805;49.554;7.632;2022-08-11T19:06:12;10.95;;;8.35;;
15412;SDS011;7805;49.554;7.632;2022-08-11T19:08:58;25.25;;;18.73;;
15412;SDS011;7805;49.554;7.632;2022-08-11T19:11:45;10.45;;;6.82;;
15412;SDS011;7805;49.554;7.632;2022-08-11T19:14:31;24.77;;;17.50;;
15412;SDS011;7805;49.554;7.632;2022-08-11T19:17:17;11.93;;;9.45;;
15412;SDS011;7805;49.554;7.632;2022-08-11T19:20:04;40.42;;;28.98;;
15412;SDS011;7805;49.554;7.632;2022-08-11T19:22:52;25.70;;;17.20;;
15412;SDS011;7805;49.554;7.632;2022-08-11T19:25:39;5.63;;;4.70;;
15412;SDS011;7805;49.554;7.632;2022-08-11T19:28:24;9.13;;;5.30;;
15412;SDS011;7805;49.554;7.632;2022-08-11T19:31:09;19.17;;;14.38;;
15412;SDS011;7805;49.554;7.632;2022-08-11T19:33:55;7.43;;;6.32;;
15412;SDS011;7805;49.554;7.632;2022-08-11T19:36:40;10.13;;;6.82;;
15412;SDS011;7805;49.554;7.632;2022-08-11T19:39:26;16.05;;;10.73;;
15412;SDS011;7805;49.554;7.632;2022-08-11T19:42:12;11.65;;;9.38;;
15412;SDS011;7805;49.554;7.632;2022-08-11T19:44:59;7.82;;;7.07;;
15412;SDS011;7805;49.554;7.632;2022-08-11T19:47:45;2.42;;;2.22;;
15412;SDS011;7805;49.554;7.632;2022-08-11T19:50:33;2.63;;;2.42;;
15412;SDS011;7805;49.554;7.632;2022-08-11T19:53:18;3.58;;;2.95;;
15412;SDS011;7805;49.554;7.632;2022-08-11T19:56:03;6.85;;;4.55;;
15412;SDS011;7805;49.554;7.632;2022-08-11T19:58:50;6.18;;;4.53;;
15412;SDS011;7805;49.554;7.632;2022-08-11T20:01:35;5.65;;;5.10;;
15412;SDS011;7805;49.554;7.632;2022-08-11T20:04:20;6.30;;;2.95;;
15412;SDS011;7805;49.554;7.632;2022-08-11T20:07:04;4.00;;;3.25;;
15412;SDS011;7805;49.554;7.632;2022-08-11T20:09:49;3.78;;;2.38;;
15412;SDS011;7805;49.554;7.632;2022-08-11T20:12:34;3.22;;;3.00;;